Time;durP1;ratioP1;P1;durP2;ratioP2;P2;SDS_P1;SDS_P2;PMS_P1;PMS_P2;Temp;Humidity;BMP_temperature;BMP_pressure;BME280_temperature;BME280_humidity;BME280_pressure;Samples;Min_cycle;Max_cycle;Signal;HPM_P1;HPM_P2
2021/06/06 00:01:03;;;;;;;37.30;25.83;;;19.30;85.00;;;;;;4949423;28;20032;-88
2021/06/06 00:03:35;;;;;;;37.95;25.33;;;19.30;84.20;;;;;;4945969;28;20444;-88
2021/06/06 00:06:14;;;;;;;37.85;25.17;;;19.20;84.50;;;;;;4940769;28;20034;-91
2021/06/06 00:08:41;;;;;;;37.15;25.20;;;19.20;84.90;;;;;;4943938;28;20061;-90
2021/06/06 00:11:14;;;;;;;37.97;26.55;;;19.20;84.60;;;;;;4968966;28;20089;-91
2021/06/06 00:13:40;;;;;;;38.08;27.02;;;19.20;84.80;;;;;;4948358;29;20372;-91
2021/06/06 00:16:08;;;;;;;34.90;26.80;;;19.10;84.90;;;;;;4942195;28;20738;-90
2021/06/06 00:18:34;;;;;;;40.63;27.30;;;19.00;85.30;;;;;;4943551;28;20118;-90
2021/06/06 00:21:00;;;;;;;38.75;26.85;;;19.00;85.20;;;;;;4942361;28;20115;-90
2021/06/06 00:23:25;;;;;;;39.38;27.77;;;19.10;85.20;;;;;;4955613;28;20046;-89
2021/06/06 00:25:51;;;;;;;40.58;27.85;;;19.00;85.20;;;;;;4947881;28;20031;-89
2021/06/06 00:28:17;;;;;;;40.08;28.17;;;19.00;85.40;;;;;;4952307;28;20040;-88
2021/06/06 00:30:43;;;;;;;39.10;28.77;;;19.00;85.40;;;;;;4949316;28;20118;-88
2021/06/06 00:33:09;;;;;;;42.03;28.70;;;19.00;85.40;;;;;;4945493;28;20613;-91
2021/06/06 00:35:35;;;;;;;43.05;29.33;;;18.90;85.70;;;;;;4958256;28;20082;-89
2021/06/06 00:38:01;;;;;;;41.78;29.23;;;19.00;85.70;;;;;;4941136;28;20644;-91
2021/06/06 00:40:29;;;;;;;41.45;29.77;;;18.90;85.40;;;;;;4940653;28;20372;-91
2021/06/06 00:42:55;;;;;;;44.25;30.10;;;18.90;85.60;;;;;;4946252;28;20091;-90
2021/06/06 00:45:24;;;;;;;44.42;29.48;;;19.00;85.40;;;;;;4962216;28;20035;-90
2021/06/06 00:47:50;;;;;;;42.67;29.60;;;19.00;86.30;;;;;;4946876;28;20408;-88
2021/06/06 00:50:24;;;;;;;45.00;30.98;;;18.90;85.50;;;;;;4947390;28;20353;-90
2021/06/06 00:52:53;;;;;;;38.33;27.80;;;18.80;85.50;;;;;;4947440;28;20067;-90
2021/06/06 00:55:19;;;;;;;42.03;28.83;;;18.90;85.70;;;;;;4950567;28;20405;-88
2021/06/06 00:57:45;;;;;;;43.63;30.05;;;19.00;85.40;;;;;;4942784;28;20031;-89
2021/06/06 01:00:35;;;;;;;45.28;31.02;;;19.00;85.40;;;;;;4950079;28;20039;-90
2021/06/06 01:03:01;;;;;;;43.80;30.48;;;19.00;85.00;;;;;;4959304;28;20395;-91
2021/06/06 01:05:38;;;;;;;43.40;29.90;;;18.90;85.20;;;;;;4940790;29;20126;-89
2021/06/06 01:08:09;;;;;;;41.00;27.40;;;18.80;85.20;;;;;;4945588;28;20037;-88
2021/06/06 01:10:35;;;;;;;39.78;28.75;;;18.80;85.40;;;;;;4961585;28;20580;-89
2021/06/06 01:13:24;;;;;;;39.92;27.17;;;18.80;85.40;;;;;;4947852;29;20372;-90
2021/06/06 01:15:57;;;;;;;39.58;27.83;;;18.80;85.50;;;;;;4962147;28;20031;-91
2021/06/06 01:18:31;;;;;;;40.47;29.17;;;18.70;85.50;;;;;;4959820;28;20512;-89
2021/06/06 01:21:21;;;;;;;40.72;30.00;;;18.70;85.60;;;;;;4957207;28;20102;-89
2021/06/06 01:24:10;;;;;;;39.78;26.80;;;18.70;85.40;;;;;;4937159;28;20343;-89
2021/06/06 01:26:58;;;;;;;36.75;25.95;;;18.70;85.30;;;;;;4947276;29;20031;-90
2021/06/06 01:29:46;;;;;;;36.40;25.85;;;18.70;85.10;;;;;;4962962;28;20035;-89
2021/06/06 01:32:15;;;;;;;;;;;18.70;85.10;;;;;;4909501;28;20404;-90
2021/06/06 01:34:44;;;;;;;39.55;27.13;;;18.70;85.00;;;;;;4951232;28;19910;-90
2021/06/06 01:37:14;;;;;;;;;;;18.70;85.20;;;;;;4950587;28;20402;-89
2021/06/06 01:40:04;;;;;;;36.22;25.60;;;18.60;85.20;;;;;;4951044;28;19916;-89
2021/06/06 01:42:33;;;;;;;37.03;28.20;;;18.60;85.10;;;;;;4931437;29;20078;-90
2021/06/06 01:45:06;;;;;;;38.05;28.55;;;18.50;85.40;;;;;;4937370;28;20031;-90
2021/06/06 01:47:32;;;;;;;38.63;27.58;;;18.40;85.50;;;;;;4937894;28;20030;-91
2021/06/06 01:50:05;;;;;;;37.60;28.40;;;18.40;85.80;;;;;;4941691;28;20062;-90
2021/06/06 01:52:33;;;;;;;35.47;26.75;;;18.30;85.80;;;;;;4963423;28;20105;-90
2021/06/06 01:55:02;;;;;;;35.40;27.07;;;18.30;85.90;;;;;;4947586;28;20039;-89
2021/06/06 01:57:28;;;;;;;34.33;24.55;;;18.30;86.10;;;;;;4941537;28;20880;-90
2021/06/06 01:59:57;;;;;;;36.47;26.48;;;18.30;85.80;;;;;;4968639;28;20039;-90
2021/06/06 02:02:22;;;;;;;38.83;27.30;;;18.20;85.90;;;;;;4955224;28;20026;-91
2021/06/06 02:04:48;;;;;;;35.50;24.95;;;18.20;85.90;;;;;;4951593;29;20210;-90
2021/06/06 02:07:23;;;;;;;35.20;25.80;;;18.30;85.80;;;;;;4951045;28;20099;-89
2021/06/06 02:10:12;;;;;;;34.53;25.58;;;18.30;85.60;;;;;;4975297;28;20027;-89
2021/06/06 02:12:41;;;;;;;36.08;25.00;;;18.30;85.50;;;;;;4952713;28;20031;-90
2021/06/06 02:15:10;;;;;;;34.85;25.83;;;18.30;85.40;;;;;;4967699;28;20113;-90
2021/06/06 02:17:36;;;;;;;33.88;24.73;;;18.30;85.50;;;;;;4939094;28;20090;-91
2021/06/06 02:20:05;;;;;;;36.42;26.08;;;18.30;85.40;;;;;;4946520;28;20039;-89
2021/06/06 02:22:32;;;;;;;36.33;25.95;;;18.30;85.50;;;;;;4952500;29;20051;-90
2021/06/06 02:24:59;;;;;;;35.25;25.30;;;18.20;85.50;;;;;;4950549;29;20068;-90
2021/06/06 02:27:46;;;;;;;35.80;25.88;;;18.20;85.60;;;;;;4941022;28;20090;-90
2021/06/06 02:30:50;;;;;;;35.75;26.92;;;18.20;85.50;;;;;;4941279;28;20034;-91
2021/06/06 02:33:25;;;;;;;36.88;26.50;;;18.20;85.40;;;;;;4951198;29;20439;-90
2021/06/06 02:35:56;;;;;;;33.67;23.83;;;18.20;85.80;;;;;;4949457;28;20122;-90
2021/06/06 02:38:37;;;;;;;33.42;22.65;;;18.20;85.40;;;;;;4965747;28;20034;-89
2021/06/06 02:41:14;;;;;;;32.08;23.05;;;18.20;85.50;;;;;;4953855;28;20376;-89
2021/06/06 02:43:49;;;;;;;36.03;25.15;;;18.10;85.60;;;;;;4966557;28;20046;-89
2021/06/06 02:46:19;;;;;;;37.03;25.98;;;18.20;85.70;;;;;;4941601;28;20332;-90
2021/06/06 02:48:49;;;;;;;37.35;25.05;;;18.20;85.50;;;;;;4942829;28;20081;-90
2021/06/06 02:51:20;;;;;;;35.55;26.30;;;18.20;86.40;;;;;;4941453;28;20034;-90
2021/06/06 02:53:58;;;;;;;35.35;25.60;;;18.10;85.60;;;;;;4953519;28;20458;-90
2021/06/06 02:56:27;;;;;;;35.50;25.20;;;18.10;85.80;;;;;;4941298;28;20031;-90
2021/06/06 02:59:01;;;;;;;36.70;27.35;;;18.10;85.70;;;;;;4944123;28;20066;-89
2021/06/06 03:01:33;;;;;;;33.80;24.05;;;18.00;85.90;;;;;;4951755;28;20067;-89
2021/06/06 03:04:02;;;;;;;32.10;23.38;;;18.00;86.10;;;;;;4945162;28;20439;-90
2021/06/06 03:06:34;;;;;;;30.10;21.88;;;18.00;86.30;;;;;;4939945;28;20026;-90
2021/06/06 03:09:00;;;;;;;32.63;22.92;;;17.90;86.50;;;;;;4944119;28;20022;-89
2021/06/06 03:11:27;;;;;;;32.22;22.05;;;17.90;86.00;;;;;;4955023;28;20094;-89
2021/06/06 03:13:59;;;;;;;33.80;23.13;;;17.90;86.30;;;;;;4945724;28;20418;-89
2021/06/06 03:16:27;;;;;;;30.98;22.67;;;17.80;86.30;;;;;;4940217;28;20723;-90
2021/06/06 03:18:56;;;;;;;32.40;22.57;;;17.80;86.60;;;;;;4944380;28;20078;-89
2021/06/06 03:21:30;;;;;;;33.38;22.85;;;17.70;86.70;;;;;;4940616;28;20055;-90
2021/06/06 03:24:02;;;;;;;31.38;22.55;;;17.70;86.90;;;;;;4942861;28;20498;-92
2021/06/06 03:26:28;;;;;;;33.00;21.65;;;17.70;86.90;;;;;;4946204;28;20026;-90
2021/06/06 03:28:54;;;;;;;31.02;22.45;;;17.70;87.00;;;;;;4942384;28;20027;-89
2021/06/06 03:31:36;;;;;;;30.25;21.33;;;17.80;86.70;;;;;;4942740;28;20077;-90
2021/06/06 03:34:03;;;;;;;30.83;20.55;;;17.70;86.80;;;;;;4957061;28;20498;-89
2021/06/06 03:36:36;;;;;;;30.02;20.95;;;17.70;86.90;;;;;;4941801;28;20647;-90
2021/06/06 03:39:06;;;;;;;28.73;20.13;;;17.70;86.70;;;;;;4945640;28;20552;-91
2021/06/06 03:41:32;;;;;;;29.23;20.63;;;17.70;86.60;;;;;;4940022;28;20066;-90
2021/06/06 03:43:58;;;;;;;29.00;20.42;;;17.70;86.70;;;;;;4943376;28;20066;-89
2021/06/06 03:46:28;;;;;;;28.60;20.45;;;17.70;86.80;;;;;;4942834;28;20130;-89
2021/06/06 03:48:54;;;;;;;28.52;20.20;;;17.80;86.80;;;;;;4947740;28;20030;-88
2021/06/06 03:51:22;;;;;;;27.55;19.52;;;17.80;86.60;;;;;;4950448;28;20142;-89
2021/06/06 03:53:48;;;;;;;32.00;20.90;;;17.80;86.40;;;;;;4950303;28;20570;-89
2021/06/06 03:56:14;;;;;;;29.90;20.88;;;17.80;86.50;;;;;;4939605;28;20133;-90
2021/06/06 03:58:41;;;;;;;30.17;20.35;;;17.70;86.60;;;;;;4961815;28;20081;-89
2021/06/06 04:01:10;;;;;;;28.23;20.38;;;17.70;86.60;;;;;;4949252;28;20035;-90
2021/06/06 04:03:36;;;;;;;29.30;19.58;;;17.80;86.80;;;;;;4948482;28;20027;-90
2021/06/06 04:06:02;;;;;;;29.38;19.88;;;17.70;86.80;;;;;;4949098;28;20043;-88
2021/06/06 04:08:28;;;;;;;29.27;19.75;;;17.80;86.70;;;;;;4948344;28;20023;-90
2021/06/06 04:10:54;;;;;;;28.55;19.95;;;17.70;86.70;;;;;;4963616;28;20039;-89
2021/06/06 04:13:20;;;;;;;28.50;18.90;;;17.80;86.80;;;;;;4941169;28;20113;-90
2021/06/06 04:15:47;;;;;;;28.58;18.40;;;17.70;87.00;;;;;;4949374;28;20054;-89
2021/06/06 04:18:22;;;;;;;26.88;17.73;;;17.70;87.50;;;;;;4947960;28;20027;-90
2021/06/06 04:20:50;;;;;;;26.58;18.33;;;17.70;86.80;;;;;;4949816;28;20066;-90
2021/06/06 04:23:17;;;;;;;26.50;18.25;;;17.70;86.90;;;;;;4948214;28;20026;-88
2021/06/06 04:25:43;;;;;;;25.35;17.23;;;17.60;87.00;;;;;;4941669;28;20027;-90
2021/06/06 04:28:09;;;;;;;26.67;16.98;;;17.70;87.10;;;;;;4941419;28;20085;-90
2021/06/06 04:30:35;;;;;;;27.80;16.75;;;17.60;87.00;;;;;;4938203;29;20395;-89
2021/06/06 04:33:06;;;;;;;28.58;17.80;;;17.60;86.90;;;;;;4944347;28;20019;-91
2021/06/06 04:35:33;;;;;;;26.20;17.65;;;17.70;87.00;;;;;;4966587;28;20043;-90
2021/06/06 04:37:58;;;;;;;25.02;16.80;;;17.70;87.00;;;;;;4948914;28;20031;-89
2021/06/06 04:40:24;;;;;;;25.75;16.95;;;17.60;87.20;;;;;;4942087;28;20036;-89
2021/06/06 04:42:49;;;;;;;26.25;16.25;;;17.60;87.20;;;;;;4944358;28;20445;-89
2021/06/06 04:45:15;;;;;;;23.42;15.35;;;17.60;87.30;;;;;;4944518;28;20050;-89
2021/06/06 04:47:42;;;;;;;25.52;16.20;;;17.60;87.20;;;;;;4946949;28;20074;-90
2021/06/06 04:50:10;;;;;;;25.60;16.33;;;17.60;87.30;;;;;;4942052;28;20034;-91
2021/06/06 04:52:36;;;;;;;23.67;15.45;;;17.60;86.90;;;;;;4955308;28;20037;-90
2021/06/06 04:55:11;;;;;;;25.15;16.23;;;17.60;87.00;;;;;;4940769;28;20121;-89
2021/06/06 04:57:37;;;;;;;24.23;16.15;;;17.60;87.10;;;;;;4945767;28;20120;-90
2021/06/06 05:00:10;;;;;;;22.25;15.32;;;17.50;87.20;;;;;;4941012;29;20151;-90
2021/06/06 05:02:35;;;;;;;22.05;14.70;;;17.50;87.20;;;;;;4957927;28;20031;-91
2021/06/06 05:05:02;;;;;;;21.67;13.57;;;17.50;87.10;;;;;;4939351;28;20031;-89
2021/06/06 05:07:27;;;;;;;21.95;14.68;;;17.50;87.20;;;;;;4938589;28;20035;-88
2021/06/06 05:09:53;;;;;;;22.88;14.52;;;17.60;87.00;;;;;;4941333;28;20027;-89
2021/06/06 05:12:18;;;;;;;21.60;13.93;;;17.60;87.00;;;;;;4941989;28;20086;-89
2021/06/06 05:14:44;;;;;;;21.92;14.65;;;17.50;87.00;;;;;;4950904;28;20035;-90
2021/06/06 05:17:10;;;;;;;22.55;14.98;;;17.50;87.00;;;;;;4945237;28;20122;-88
2021/06/06 05:19:35;;;;;;;22.90;14.70;;;17.50;87.10;;;;;;4941308;29;20030;-90
2021/06/06 05:22:02;;;;;;;22.60;14.88;;;17.50;87.20;;;;;;4931922;29;20492;-89
2021/06/06 05:24:27;;;;;;;24.92;15.85;;;17.50;87.20;;;;;;4947061;29;20133;-90
2021/06/06 05:26:53;;;;;;;24.08;15.73;;;17.50;87.10;;;;;;4946681;29;20587;-90
2021/06/06 05:29:19;;;;;;;25.50;16.25;;;17.50;87.20;;;;;;4947453;29;20714;-89
2021/06/06 05:31:44;;;;;;;23.42;15.30;;;17.50;87.10;;;;;;4928030;29;20481;-90
2021/06/06 05:34:10;;;;;;;22.92;15.02;;;17.50;87.20;;;;;;4946127;29;20035;-90
2021/06/06 05:36:36;;;;;;;22.77;15.20;;;17.50;87.10;;;;;;4928879;29;20121;-91
2021/06/06 05:39:05;;;;;;;23.30;15.32;;;17.50;87.10;;;;;;4929685;29;20066;-90
2021/06/06 05:41:31;;;;;;;24.45;15.73;;;17.50;87.00;;;;;;4929481;29;20031;-90
2021/06/06 05:43:56;;;;;;;24.05;15.85;;;17.50;87.00;;;;;;4946667;29;20095;-89
2021/06/06 05:46:22;;;;;;;24.20;15.27;;;17.60;86.90;;;;;;4946316;29;20046;-90
2021/06/06 05:48:49;;;;;;;24.70;16.50;;;17.60;86.90;;;;;;4929614;29;20035;-90
2021/06/06 05:51:15;;;;;;;24.85;16.60;;;17.60;86.80;;;;;;4943026;29;20061;-90
2021/06/06 05:53:41;;;;;;;25.52;16.38;;;17.60;86.90;;;;;;4928726;29;20035;-90
2021/06/06 05:56:09;;;;;;;25.10;16.80;;;17.60;86.90;;;;;;4946304;29;20033;-89
2021/06/06 05:58:36;;;;;;;27.00;18.08;;;17.60;86.90;;;;;;4929778;29;20027;-91
2021/06/06 06:01:02;;;;;;;28.45;17.60;;;17.50;87.00;;;;;;4929521;29;20035;-89
2021/06/06 06:03:28;;;;;;;26.80;17.67;;;17.50;87.20;;;;;;4928787;29;20046;-90
2021/06/06 06:05:54;;;;;;;27.77;18.27;;;17.60;87.20;;;;;;4945131;29;20134;-91
2021/06/06 06:08:22;;;;;;;25.67;17.00;;;17.50;87.10;;;;;;4941213;29;20058;-90
2021/06/06 06:10:49;;;;;;;26.48;17.13;;;17.50;87.20;;;;;;4929161;29;20054;-90
2021/06/06 06:13:16;;;;;;;26.13;17.50;;;17.50;87.40;;;;;;4928595;29;20035;-90
2021/06/06 06:15:42;;;;;;;26.23;17.90;;;17.40;87.50;;;;;;4928669;29;20479;-91
2021/06/06 06:18:09;;;;;;;26.85;18.75;;;17.40;87.40;;;;;;4929904;29;20055;-89
2021/06/06 06:20:35;;;;;;;28.90;19.23;;;17.40;87.70;;;;;;4928489;29;20039;-90
2021/06/06 06:23:01;;;;;;;28.17;18.33;;;17.40;87.90;;;;;;4927096;29;20062;-90
2021/06/06 06:25:26;;;;;;;26.75;18.15;;;17.40;87.70;;;;;;4945771;29;20027;-89
2021/06/06 06:27:52;;;;;;;27.92;18.35;;;17.40;87.50;;;;;;4928441;29;20451;-89
2021/06/06 06:30:24;;;;;;;28.63;19.42;;;17.40;87.50;;;;;;4929333;29;20219;-89
2021/06/06 06:32:50;;;;;;;27.27;18.63;;;17.40;87.60;;;;;;4930136;29;20027;-90
2021/06/06 06:35:16;;;;;;;27.13;18.90;;;17.40;87.60;;;;;;4929795;29;20035;-90
2021/06/06 06:37:42;;;;;;;27.80;18.23;;;17.40;87.70;;;;;;4929087;29;20487;-91
2021/06/06 06:40:10;;;;;;;28.00;18.88;;;17.30;87.80;;;;;;4928952;29;20042;-90
2021/06/06 06:42:36;;;;;;;27.00;18.93;;;17.40;87.80;;;;;;4946351;28;20114;-91
2021/06/06 06:45:05;;;;;;;27.65;18.92;;;17.40;87.80;;;;;;4933458;29;20082;-89
2021/06/06 06:47:30;;;;;;;25.73;18.10;;;17.50;87.70;;;;;;4932547;29;20035;-90
2021/06/06 06:49:57;;;;;;;28.42;18.63;;;17.50;87.70;;;;;;4932792;29;20035;-90
2021/06/06 06:52:22;;;;;;;27.33;18.17;;;17.60;87.70;;;;;;4933030;29;20086;-89
2021/06/06 06:54:48;;;;;;;27.02;19.02;;;17.60;87.50;;;;;;4932119;29;20035;-90
2021/06/06 06:57:14;;;;;;;27.48;18.83;;;17.50;88.10;;;;;;4931954;29;20498;-90
2021/06/06 06:59:39;;;;;;;28.33;19.15;;;17.50;87.60;;;;;;4933498;29;20027;-90
2021/06/06 07:02:05;;;;;;;28.20;19.58;;;17.50;87.60;;;;;;4932558;29;20786;-89
2021/06/06 07:04:31;;;;;;;29.67;19.90;;;17.50;87.80;;;;;;4931494;29;20031;-90
2021/06/06 07:06:57;;;;;;;28.63;19.77;;;17.50;87.90;;;;;;4931005;29;20042;-89
2021/06/06 07:09:24;;;;;;;31.75;20.98;;;17.50;87.80;;;;;;4949087;29;20027;-91
2021/06/06 07:11:51;;;;;;;31.52;21.17;;;17.50;87.80;;;;;;4932038;29;20028;-91
2021/06/06 07:14:17;;;;;;;31.33;21.48;;;17.50;87.90;;;;;;4930192;29;20031;-90
2021/06/06 07:16:43;;;;;;;31.55;21.63;;;17.60;87.70;;;;;;4941199;29;20058;-90
2021/06/06 07:19:08;;;;;;;34.58;22.38;;;17.50;87.60;;;;;;4932532;29;20110;-90
2021/06/06 07:21:35;;;;;;;29.85;21.02;;;17.50;87.80;;;;;;4941843;28;20054;-89
2021/06/06 07:24:00;;;;;;;33.05;21.95;;;17.50;88.00;;;;;;4951480;28;20031;-89
2021/06/06 07:26:32;;;;;;;34.15;23.77;;;17.40;88.60;;;;;;4950831;28;20030;-90
2021/06/06 07:29:07;;;;;;;34.33;22.50;;;17.50;87.90;;;;;;4952600;28;20137;-90
2021/06/06 07:31:33;;;;;;;32.67;22.90;;;17.50;88.10;;;;;;4949140;28;20035;-89
2021/06/06 07:33:58;;;;;;;35.28;24.42;;;17.50;88.00;;;;;;4946525;29;20479;-90
2021/06/06 07:36:24;;;;;;;35.20;23.95;;;17.50;88.10;;;;;;4948434;28;20410;-90
2021/06/06 07:38:50;;;;;;;35.97;24.38;;;17.50;88.10;;;;;;4937753;28;20037;-90
2021/06/06 07:41:18;;;;;;;34.67;24.67;;;17.40;88.20;;;;;;4945795;28;20190;-91
2021/06/06 07:43:44;;;;;;;34.60;23.92;;;17.40;88.90;;;;;;4944875;28;20099;-89
2021/06/06 07:46:10;;;;;;;34.00;23.58;;;17.40;88.20;;;;;;4964055;28;20122;-90
2021/06/06 07:48:36;;;;;;;38.13;25.02;;;17.50;88.20;;;;;;4950567;28;20035;-89
2021/06/06 07:51:04;;;;;;;35.63;25.45;;;17.50;87.80;;;;;;4944495;28;20065;-91
2021/06/06 07:53:29;;;;;;;34.93;24.70;;;17.50;87.80;;;;;;4942370;28;20038;-90
2021/06/06 07:55:56;;;;;;;34.78;24.45;;;17.50;87.80;;;;;;4948201;28;20399;-90
2021/06/06 07:58:27;;;;;;;35.25;25.30;;;17.50;87.90;;;;;;4945222;28;20767;-90
2021/06/06 08:00:53;;;;;;;35.72;26.02;;;17.50;87.80;;;;;;4943720;28;20054;-90
2021/06/06 08:03:19;;;;;;;35.90;26.40;;;17.60;87.70;;;;;;4967696;28;20368;-91
2021/06/06 08:05:45;;;;;;;35.95;27.02;;;17.60;87.70;;;;;;4956396;28;20039;-90
2021/06/06 08:08:13;;;;;;;38.45;28.17;;;17.50;87.80;;;;;;4939184;28;20031;-90
2021/06/06 08:10:42;;;;;;;40.53;28.73;;;17.50;87.90;;;;;;4942055;28;20031;-90
2021/06/06 08:13:07;;;;;;;40.67;28.67;;;17.60;87.70;;;;;;4947088;28;20027;-88
2021/06/06 08:15:34;;;;;;;39.15;28.33;;;17.50;87.60;;;;;;4945741;28;20058;-90
2021/06/06 08:18:04;;;;;;;38.55;28.98;;;17.50;87.70;;;;;;4966582;28;20443;-89
2021/06/06 08:20:36;;;;;;;37.35;28.48;;;17.60;87.20;;;;;;4946795;29;20853;-90
2021/06/06 08:23:02;;;;;;;35.90;27.38;;;17.60;87.30;;;;;;4940251;29;20101;-88
2021/06/06 08:25:28;;;;;;;37.97;28.25;;;17.60;87.40;;;;;;4945185;28;20322;-91
2021/06/06 08:27:53;;;;;;;36.03;26.13;;;17.60;87.30;;;;;;4963706;28;20035;-89
2021/06/06 08:30:27;;;;;;;36.30;27.92;;;17.60;87.10;;;;;;4946932;28;20030;-90
2021/06/06 08:32:53;;;;;;;41.13;28.30;;;17.70;86.80;;;;;;4943329;28;20259;-89
2021/06/06 08:35:19;;;;;;;36.35;27.50;;;17.60;87.00;;;;;;4945146;28;20396;-90
2021/06/06 08:37:45;;;;;;;36.30;27.05;;;17.60;87.00;;;;;;4942830;28;20506;-89
2021/06/06 08:40:13;;;;;;;36.05;27.88;;;17.60;87.20;;;;;;4965121;28;20034;-88
2021/06/06 08:42:45;;;;;;;35.42;26.23;;;17.60;87.20;;;;;;4951260;28;20035;-88
2021/06/06 08:45:25;;;;;;;37.22;27.75;;;17.60;87.20;;;;;;4963772;28;20030;-89
2021/06/06 08:47:50;;;;;;;37.90;26.25;;;17.60;87.20;;;;;;4943854;28;20474;-90
2021/06/06 08:50:25;;;;;;;37.53;27.27;;;17.60;87.00;;;;;;4957413;28;20030;-90
2021/06/06 08:53:12;;;;;;;38.47;28.02;;;17.70;86.70;;;;;;4937078;28;20038;-90
2021/06/06 08:56:05;;;;;;;35.20;26.98;;;17.70;86.70;;;;;;4958044;28;20035;-90
2021/06/06 08:58:37;;;;;;;35.60;26.35;;;17.70;86.50;;;;;;4953607;28;20035;-89
2021/06/06 09:01:25;;;;;;;33.88;26.20;;;17.80;86.70;;;;;;4963164;28;20091;-89
2021/06/06 09:03:57;;;;;;;32.13;26.67;;;17.80;86.30;;;;;;4939858;28;20089;-89
2021/06/06 09:06:46;;;;;;;34.30;26.23;;;17.70;86.30;;;;;;4939474;28;20543;-89
2021/06/06 09:09:13;;;;;;;32.92;26.38;;;17.70;86.40;;;;;;4939592;28;20045;-89
2021/06/06 09:11:39;;;;;;;32.95;26.13;;;17.80;86.30;;;;;;4941699;28;20022;-90
2021/06/06 09:14:05;;;;;;;33.70;25.80;;;17.80;86.00;;;;;;4938959;28;20041;-89
2021/06/06 09:16:50;;;;;;;33.92;26.65;;;17.80;86.00;;;;;;4960350;28;20031;-90
2021/06/06 09:19:16;;;;;;;32.60;24.90;;;17.90;86.10;;;;;;4948820;28;20030;-90
2021/06/06 09:21:52;;;;;;;31.20;23.65;;;17.90;85.90;;;;;;4942605;28;20515;-89
2021/06/06 09:24:32;;;;;;;30.38;23.50;;;17.90;85.70;;;;;;4937971;28;20035;-91
2021/06/06 09:27:25;;;;;;;30.98;22.83;;;17.90;85.70;;;;;;4932796;28;20027;-90
2021/06/06 09:30:04;;;;;;;30.23;24.15;;;17.90;85.80;;;;;;4936632;28;20031;-90
2021/06/06 09:32:30;;;;;;;34.25;25.10;;;17.90;85.60;;;;;;4947348;28;20177;-89
2021/06/06 09:35:21;;;;;;;33.17;24.13;;;18.00;85.20;;;;;;4937774;28;20031;-89
2021/06/06 09:37:54;;;;;;;35.45;24.58;;;18.00;85.10;;;;;;4928369;28;20039;-90
2021/06/06 09:40:36;;;;;;;33.03;24.10;;;18.00;85.20;;;;;;4942079;28;20034;-89
2021/06/06 09:43:02;;;;;;;33.53;23.27;;;18.00;85.00;;;;;;4940706;28;20506;-89
2021/06/06 09:45:35;;;;;;;33.17;23.00;;;18.00;85.10;;;;;;4959066;28;20043;-88
2021/06/06 09:48:16;;;;;;;30.63;23.15;;;18.10;85.10;;;;;;4951724;28;20482;-89
2021/06/06 09:50:47;;;;;;;29.90;21.83;;;18.00;85.10;;;;;;4936000;28;20439;-89
2021/06/06 09:53:26;;;;;;;30.05;22.95;;;18.10;85.00;;;;;;4941388;28;20145;-91
2021/06/06 09:56:05;;;;;;;33.08;22.70;;;18.10;84.80;;;;;;4935383;28;20130;-91
2021/06/06 09:58:34;;;;;;;30.88;21.65;;;18.10;84.40;;;;;;4960910;28;20073;-90
2021/06/06 10:01:21;;;;;;;30.27;21.30;;;18.20;84.50;;;;;;4943207;28;20446;-89
2021/06/06 10:03:59;;;;;;;29.90;22.27;;;18.20;84.40;;;;;;4933493;28;20042;-88
2021/06/06 10:06:32;;;;;;;;;;;18.20;84.20;;;;;;4941963;28;20062;-89
2021/06/06 10:09:26;;;;;;;29.65;20.23;;;18.10;84.40;;;;;;4940948;28;20004;-89
2021/06/06 10:12:07;;;;;;;28.70;19.95;;;18.10;84.50;;;;;;4937510;28;20033;-89
2021/06/06 10:14:49;;;;;;;25.38;18.10;;;18.20;84.40;;;;;;4943602;28;20414;-90
2021/06/06 10:17:39;;;;;;;25.75;17.40;;;18.20;84.00;;;;;;4930950;28;20035;-89
2021/06/06 10:20:22;;;;;;;26.08;16.92;;;18.20;84.10;;;;;;4964425;28;20129;-89
2021/06/06 10:22:53;;;;;;;28.92;19.63;;;18.30;84.10;;;;;;4940161;28;20807;-89
2021/06/06 10:25:27;;;;;;;25.63;18.95;;;18.20;83.90;;;;;;4944943;28;20031;-89
2021/06/06 10:27:59;;;;;;;29.83;20.95;;;18.40;83.60;;;;;;4943568;28;20066;-90
2021/06/06 10:30:50;;;;;;;27.13;19.70;;;18.40;83.40;;;;;;4939996;28;20085;-89
2021/06/06 10:33:18;;;;;;;29.27;20.40;;;18.40;83.40;;;;;;4936371;28;20031;-89
2021/06/06 10:35:44;;;;;;;31.90;19.50;;;18.40;83.10;;;;;;4950891;28;20047;-90
2021/06/06 10:38:09;;;;;;;28.00;19.25;;;18.40;83.30;;;;;;4939148;28;20529;-88
2021/06/06 10:40:38;;;;;;;25.70;18.13;;;18.40;83.40;;;;;;4941848;28;20128;-87
2021/06/06 10:43:32;;;;;;;25.67;17.13;;;18.40;83.40;;;;;;4961182;28;20055;-89
2021/06/06 10:46:14;;;;;;;27.92;18.95;;;18.30;83.40;;;;;;4945701;28;20222;-88
2021/06/06 10:48:42;;;;;;;27.17;18.63;;;18.40;83.50;;;;;;4945870;28;20034;-89
2021/06/06 10:51:27;;;;;;;29.73;19.17;;;18.30;83.60;;;;;;4950275;28;20038;-89
2021/06/06 10:54:03;;;;;;;27.45;15.45;;;18.40;83.60;;;;;;4940631;29;20294;-89
2021/06/06 10:56:51;;;;;;;26.10;15.68;;;18.40;83.60;;;;;;4970252;28;20034;-89
2021/06/06 10:59:26;;;;;;;;;;;18.30;83.70;;;;;;4946994;28;20039;-90
2021/06/06 11:01:54;;;;;;;23.65;14.10;;;18.30;83.70;;;;;;4972297;28;20431;-91
2021/06/06 11:04:23;;;;;;;22.02;12.85;;;18.30;83.80;;;;;;4952914;29;20167;-91
2021/06/06 11:07:02;;;;;;;22.20;12.50;;;18.30;83.70;;;;;;4965991;28;20042;-88
2021/06/06 11:09:32;;;;;;;23.60;12.95;;;18.20;83.70;;;;;;4963767;28;20027;-88
2021/06/06 11:12:12;;;;;;;21.90;13.35;;;18.20;83.90;;;;;;4967448;28;20566;-90
2021/06/06 11:14:46;;;;;;;22.80;14.05;;;18.20;84.00;;;;;;4945586;28;20482;-91
2021/06/06 11:17:27;;;;;;;23.88;14.23;;;18.30;83.80;;;;;;4943581;29;20058;-89
2021/06/06 11:19:52;;;;;;;25.13;15.40;;;18.30;83.60;;;;;;4948095;29;20031;-91
2021/06/06 11:22:34;;;;;;;24.80;16.02;;;18.40;83.50;;;;;;4943474;28;20070;-90
2021/06/06 11:25:00;;;;;;;26.45;16.23;;;18.30;83.40;;;;;;4955736;28;20079;-90
2021/06/06 11:27:36;;;;;;;26.98;16.27;;;18.30;83.60;;;;;;4967588;28;20027;-90
2021/06/06 11:30:20;;;;;;;22.88;15.15;;;18.30;83.70;;;;;;4963714;28;20042;-90
2021/06/06 11:33:01;;;;;;;26.02;17.10;;;18.30;83.60;;;;;;4954838;28;20031;-90
2021/06/06 11:35:47;;;;;;;26.30;16.00;;;18.40;83.70;;;;;;4958694;29;20031;-88
2021/06/06 11:38:36;;;;;;;25.63;16.17;;;18.40;83.60;;;;;;4950627;28;20027;-90
2021/06/06 11:41:32;;;;;;;25.38;15.95;;;18.40;83.60;;;;;;4947623;29;20368;-89
2021/06/06 11:44:16;;;;;;;22.90;15.95;;;18.40;83.40;;;;;;4934722;28;20128;-90
2021/06/06 11:46:54;;;;;;;23.90;15.70;;;18.40;83.40;;;;;;4954235;28;20031;-88
2021/06/06 11:49:33;;;;;;;24.88;15.68;;;18.40;83.40;;;;;;4982020;28;20031;-87
2021/06/06 11:52:08;;;;;;;24.02;15.07;;;18.40;83.40;;;;;;4959840;28;20023;-89
2021/06/06 11:54:50;;;;;;;24.85;15.18;;;18.40;83.60;;;;;;4944610;28;20124;-89
2021/06/06 11:57:31;;;;;;;30.27;16.67;;;18.30;83.70;;;;;;4944522;29;20035;-90
2021/06/06 12:00:09;;;;;;;29.13;19.88;;;18.30;83.80;;;;;;4948344;28;20035;-88
2021/06/06 12:02:37;;;;;;;25.95;17.33;;;18.40;83.70;;;;;;4938937;28;20022;-91
2021/06/06 12:05:32;;;;;;;26.17;16.58;;;18.40;83.50;;;;;;4938941;28;20026;-89
2021/06/06 12:08:50;;;;;;;25.15;16.42;;;18.40;84.00;;;;;;4936255;28;20097;-88
2021/06/06 12:11:15;;;;;;;22.70;15.38;;;18.30;83.60;;;;;;4949644;28;20097;-89
2021/06/06 12:13:43;;;;;;;24.80;16.40;;;18.30;83.70;;;;;;4954638;28;20430;-90
2021/06/06 12:16:13;;;;;;;25.38;15.93;;;18.40;83.90;;;;;;4948005;28;20035;-90
2021/06/06 12:18:40;;;;;;;25.08;16.35;;;18.30;83.80;;;;;;4943355;28;20027;-89
2021/06/06 12:21:10;;;;;;;26.88;17.58;;;18.40;83.90;;;;;;4949124;28;20142;-90
2021/06/06 12:24:01;;;;;;;28.17;18.80;;;18.40;83.70;;;;;;4946347;29;20028;-89
2021/06/06 12:26:31;;;;;;;25.85;18.77;;;18.40;83.80;;;;;;4947257;28;20074;-89
2021/06/06 12:28:57;;;;;;;24.60;16.92;;;18.30;83.70;;;;;;4949874;28;20030;-89
2021/06/06 12:31:39;;;;;;;26.77;17.88;;;18.30;83.70;;;;;;4951643;28;20104;-91
2021/06/06 12:34:17;;;;;;;28.63;18.13;;;18.30;83.90;;;;;;4946948;28;20126;-88
2021/06/06 12:36:44;;;;;;;28.15;18.30;;;18.30;84.00;;;;;;4970895;28;20038;-90
2021/06/06 12:39:11;;;;;;;29.10;18.08;;;18.30;84.30;;;;;;4954985;28;20204;-90
2021/06/06 12:41:41;;;;;;;28.87;17.93;;;18.30;84.20;;;;;;4973469;28;20034;-89
2021/06/06 12:44:10;;;;;;;28.40;19.25;;;18.30;84.30;;;;;;4955450;28;20102;-89
2021/06/06 12:46:54;;;;;;;29.50;19.60;;;18.30;84.30;;;;;;4962498;28;20508;-90
2021/06/06 12:49:41;;;;;;;27.42;18.58;;;18.30;84.30;;;;;;4966969;28;20378;-88